Time;durP1;ratioP1;P1;durP2;ratioP2;P2;SDS_P1;SDS_P2;PMS_P1;PMS_P2;Temp;Humidity;BMP_temperature;BMP_pressure;BME280_temperature;BME280_humidity;BME280_pressure;Samples;Min_cycle;Max_cycle;Signal;HPM_P1;HPM_P2
2024/01/29 00:00:53;;;;;;;9.50;7.50;;;;;;;;;;5044189;28;20227;-69
2024/01/29 00:03:19;;;;;;;10.27;6.97;;;;;;;;;;5042623;28;20204;-69
2024/01/29 00:05:47;;;;;;;10.43;7.20;;;;;;;;;;5041135;28;20582;-70
2024/01/29 00:08:13;;;;;;;8.65;7.68;;;;;;;;;;5061414;28;20232;-69
2024/01/29 00:10:39;;;;;;;8.80;7.88;;;;;;;;;;5049222;28;20206;-70
2024/01/29 00:13:06;;;;;;;12.80;8.90;;;;;;;;;;5034876;28;20279;-69
2024/01/29 00:15:32;;;;;;;14.13;9.35;;;;;;;;;;5032907;28;20221;-69
2024/01/29 00:17:58;;;;;;;11.95;9.43;;;;;;;;;;5032647;28;20296;-69
2024/01/29 00:20:25;;;;;;;15.43;10.23;;;;;;;;;;5032681;28;20213;-70
2024/01/29 00:22:52;;;;;;;12.27;9.50;;;;;;;;;;5032426;28;20256;-70
2024/01/29 00:25:18;;;;;;;14.35;9.75;;;;;;;;;;5032165;28;20212;-70
2024/01/29 00:27:45;;;;;;;12.80;9.52;;;;;;;;;;5032584;28;20251;-70
2024/01/29 00:30:11;;;;;;;13.82;9.25;;;;;;;;;;5032248;28;20206;-70
2024/01/29 00:32:40;;;;;;;13.00;10.02;;;;;;;;;;5032398;28;20228;-69
2024/01/29 00:35:07;;;;;;;12.65;9.73;;;;;;;;;;5032311;28;20205;-69
2024/01/29 00:37:33;;;;;;;15.75;9.68;;;;;;;;;;5032385;28;20213;-69
2024/01/29 00:40:02;;;;;;;12.90;9.07;;;;;;;;;;5031979;28;20275;-69
2024/01/29 00:42:28;;;;;;;13.95;10.15;;;;;;;;;;5032198;28;20279;-69
2024/01/29 00:44:54;;;;;;;14.27;10.07;;;;;;;;;;5032435;28;20205;-69
2024/01/29 00:47:22;;;;;;;18.65;10.38;;;;;;;;;;5032364;28;20352;-69
2024/01/29 00:49:48;;;;;;;16.70;10.23;;;;;;;;;;5032400;28;20233;-69
2024/01/29 00:52:15;;;;;;;14.52;10.13;;;;;;;;;;5035983;28;20275;-69
2024/01/29 00:54:41;;;;;;;16.13;10.50;;;;;;;;;;5035984;28;20202;-70
2024/01/29 00:57:08;;;;;;;18.55;11.15;;;;;;;;;;5036217;28;20284;-69
2024/01/29 00:59:35;;;;;;;14.98;11.38;;;;;;;;;;5035651;28;20205;-69
2024/01/29 01:02:01;;;;;;;16.13;11.10;;;;;;;;;;5035885;28;20198;-70
2024/01/29 01:04:27;;;;;;;16.23;10.45;;;;;;;;;;5035567;28;20205;-70
2024/01/29 01:06:53;;;;;;;17.02;11.73;;;;;;;;;;5035816;28;20741;-69
2024/01/29 01:09:20;;;;;;;19.33;11.60;;;;;;;;;;5035289;28;20252;-69
2024/01/29 01:11:46;;;;;;;14.35;11.52;;;;;;;;;;5035402;28;20205;-69
2024/01/29 01:14:13;;;;;;;19.52;11.32;;;;;;;;;;5035137;28;20236;-69
2024/01/29 01:16:40;;;;;;;17.75;11.55;;;;;;;;;;5035768;28;20225;-69
2024/01/29 01:19:06;;;;;;;17.20;12.13;;;;;;;;;;5035513;28;20206;-70
2024/01/29 01:21:32;;;;;;;19.75;10.70;;;;;;;;;;5035614;28;20259;-70
2024/01/29 01:23:58;;;;;;;19.23;12.15;;;;;;;;;;5035165;28;20206;-70
2024/01/29 01:26:25;;;;;;;14.98;11.13;;;;;;;;;;5035477;28;20226;-70
2024/01/29 01:28:51;;;;;;;17.10;11.88;;;;;;;;;;5035223;28;20205;-70
2024/01/29 01:31:18;;;;;;;17.73;11.80;;;;;;;;;;5035711;28;20205;-70
2024/01/29 01:33:45;;;;;;;19.27;11.80;;;;;;;;;;5035215;28;20218;-70
2024/01/29 01:36:11;;;;;;;17.98;11.05;;;;;;;;;;5035855;28;20225;-70
2024/01/29 01:38:37;;;;;;;18.50;11.63;;;;;;;;;;5035141;28;20197;-70
2024/01/29 01:41:03;;;;;;;19.73;11.77;;;;;;;;;;5035193;28;20198;-70
2024/01/29 01:43:30;;;;;;;17.25;11.63;;;;;;;;;;5035373;28;20202;-70
2024/01/29 01:46:07;;;;;;;18.00;11.98;;;;;;;;;;5035883;28;20222;-70
2024/01/29 01:48:36;;;;;;;16.80;10.68;;;;;;;;;;5034742;28;20666;-70
2024/01/29 01:51:03;;;;;;;18.88;11.68;;;;;;;;;;5035058;28;20256;-70
2024/01/29 01:53:30;;;;;;;16.88;11.88;;;;;;;;;;5034787;28;20214;-69
2024/01/29 01:55:56;;;;;;;20.83;12.85;;;;;;;;;;5035341;28;20222;-69
2024/01/29 01:58:23;;;;;;;19.95;12.43;;;;;;;;;;5034966;28;20206;-70
2024/01/29 02:00:49;;;;;;;19.40;11.73;;;;;;;;;;5034678;28;20209;-70
2024/01/29 02:03:16;;;;;;;19.13;12.00;;;;;;;;;;5033656;28;20244;-70
2024/01/29 02:05:44;;;;;;;17.45;11.18;;;;;;;;;;5034960;28;20280;-71
2024/01/29 02:08:10;;;;;;;18.02;10.82;;;;;;;;;;5034840;28;20247;-69
2024/01/29 02:10:36;;;;;;;17.17;11.68;;;;;;;;;;5034552;28;20210;-70
2024/01/29 02:13:02;;;;;;;16.92;11.13;;;;;;;;;;5034285;28;20213;-69
2024/01/29 02:15:29;;;;;;;15.60;10.80;;;;;;;;;;5034563;28;20603;-69
2024/01/29 02:17:55;;;;;;;15.77;10.73;;;;;;;;;;5034894;28;20209;-70
2024/01/29 02:20:21;;;;;;;14.77;10.48;;;;;;;;;;5034618;28;20255;-70
2024/01/29 02:22:49;;;;;;;15.98;10.68;;;;;;;;;;5034285;28;20210;-70
2024/01/29 02:25:15;;;;;;;16.90;10.77;;;;;;;;;;5034462;28;20263;-70
2024/01/29 02:27:41;;;;;;;16.80;10.20;;;;;;;;;;5034672;28;20213;-70
2024/01/29 02:30:08;;;;;;;14.90;10.60;;;;;;;;;;5033899;28;20241;-69
2024/01/29 02:32:35;;;;;;;16.27;11.02;;;;;;;;;;5034105;28;20213;-69
2024/01/29 02:35:01;;;;;;;16.58;11.32;;;;;;;;;;5034345;28;20210;-69
2024/01/29 02:37:27;;;;;;;18.67;11.25;;;;;;;;;;5034021;28;20541;-69
2024/01/29 02:39:55;;;;;;;15.65;11.18;;;;;;;;;;5033570;28;20636;-69
2024/01/29 02:42:21;;;;;;;18.58;12.00;;;;;;;;;;5033900;28;20201;-69
2024/01/29 02:44:47;;;;;;;18.20;10.93;;;;;;;;;;5034118;28;20201;-69
2024/01/29 02:47:15;;;;;;;17.00;11.18;;;;;;;;;;5034217;28;20226;-69
2024/01/29 02:49:43;;;;;;;19.02;10.55;;;;;;;;;;5033794;28;20205;-70
2024/01/29 02:52:09;;;;;;;20.55;11.10;;;;;;;;;;5034097;28;20209;-70
2024/01/29 02:54:35;;;;;;;16.33;11.00;;;;;;;;;;5033604;28;20206;-70
2024/01/29 02:57:03;;;;;;;15.50;11.20;;;;;;;;;;5033619;28;20225;-70
2024/01/29 02:59:29;;;;;;;18.73;10.98;;;;;;;;;;5033425;28;20228;-70
2024/01/29 03:01:56;;;;;;;15.07;11.27;;;;;;;;;;5033801;28;20205;-70
2024/01/29 03:04:23;;;;;;;16.42;10.85;;;;;;;;;;5033563;28;20264;-70
2024/01/29 03:06:49;;;;;;;17.35;11.05;;;;;;;;;;5033440;28;20229;-71
2024/01/29 03:09:16;;;;;;;17.70;10.90;;;;;;;;;;5033153;28;20206;-70
2024/01/29 03:11:43;;;;;;;16.38;11.10;;;;;;;;;;5033540;28;20229;-70
2024/01/29 03:14:10;;;;;;;14.18;10.55;;;;;;;;;;5032675;28;20283;-69
2024/01/29 03:16:37;;;;;;;17.52;10.95;;;;;;;;;;5033607;28;20272;-70
2024/01/29 03:19:03;;;;;;;15.18;10.68;;;;;;;;;;5032962;28;20263;-71
2024/01/29 03:21:29;;;;;;;18.90;11.38;;;;;;;;;;5033395;28;20216;-69
2024/01/29 03:23:56;;;;;;;13.27;9.88;;;;;;;;;;5033135;28;20632;-70
2024/01/29 03:26:22;;;;;;;13.45;9.75;;;;;;;;;;5032888;28;20713;-70
2024/01/29 03:28:48;;;;;;;16.42;10.45;;;;;;;;;;5032921;28;20232;-69
2024/01/29 03:31:16;;;;;;;14.50;10.73;;;;;;;;;;5033304;28;20262;-69
2024/01/29 03:33:42;;;;;;;16.17;10.52;;;;;;;;;;5033012;28;20228;-69
2024/01/29 03:36:09;;;;;;;16.35;10.50;;;;;;;;;;5033491;28;20276;-70
2024/01/29 03:38:35;;;;;;;19.00;10.82;;;;;;;;;;5032642;28;20301;-70
2024/01/29 03:41:01;;;;;;;15.85;10.35;;;;;;;;;;5032920;28;20209;-70
2024/01/29 03:43:28;;;;;;;14.90;9.93;;;;;;;;;;5032645;28;20617;-70
2024/01/29 03:45:54;;;;;;;17.10;10.95;;;;;;;;;;5032785;28;20221;-69
2024/01/29 03:48:22;;;;;;;16.10;10.63;;;;;;;;;;5032968;28;20210;-69
2024/01/29 03:50:48;;;;;;;19.90;10.63;;;;;;;;;;5032720;28;20206;-69
2024/01/29 03:53:14;;;;;;;15.02;10.02;;;;;;;;;;5032404;28;20367;-69
2024/01/29 03:55:41;;;;;;;14.23;9.90;;;;;;;;;;5032702;28;20225;-70
2024/01/29 03:58:07;;;;;;;17.38;10.48;;;;;;;;;;5032922;28;20208;-70
2024/01/29 04:00:34;;;;;;;15.73;10.68;;;;;;;;;;5032740;28;20198;-70
2024/01/29 04:03:00;;;;;;;13.13;9.98;;;;;;;;;;5032517;28;20601;-70
2024/01/29 04:05:28;;;;;;;15.20;9.60;;;;;;;;;;5032879;28;20229;-70
2024/01/29 04:07:54;;;;;;;16.42;10.38;;;;;;;;;;5032763;28;20253;-70
2024/01/29 04:10:20;;;;;;;12.80;9.35;;;;;;;;;;5032010;28;20206;-69
2024/01/29 04:12:47;;;;;;;13.82;10.25;;;;;;;;;;5032571;28;20202;-70
2024/01/29 04:15:13;;;;;;;14.40;9.55;;;;;;;;;;5032037;28;20678;-70
2024/01/29 04:17:39;;;;;;;13.38;9.65;;;;;;;;;;5032547;28;20201;-69
2024/01/29 04:20:06;;;;;;;15.05;9.57;;;;;;;;;;5032382;28;20209;-70
2024/01/29 04:22:34;;;;;;;13.05;9.05;;;;;;;;;;5032308;28;20251;-70
2024/01/29 04:25:00;;;;;;;14.45;9.38;;;;;;;;;;5034066;28;20201;-70
2024/01/29 04:27:26;;;;;;;13.50;9.15;;;;;;;;;;5038826;28;20222;-70
2024/01/29 04:29:53;;;;;;;11.88;9.05;;;;;;;;;;5038660;28;20197;-71
2024/01/29 04:32:19;;;;;;;13.25;9.25;;;;;;;;;;5038973;28;20201;-70
2024/01/29 04:34:45;;;;;;;15.35;9.73;;;;;;;;;;5038596;28;20222;-70
2024/01/29 04:37:12;;;;;;;14.32;10.25;;;;;;;;;;5039474;28;20308;-70
2024/01/29 04:39:39;;;;;;;14.13;9.52;;;;;;;;;;5038388;28;20205;-70
2024/01/29 04:42:06;;;;;;;13.30;8.63;;;;;;;;;;5038989;28;20201;-69
2024/01/29 04:44:32;;;;;;;14.68;9.52;;;;;;;;;;5038350;28;20239;-70
2024/01/29 04:46:58;;;;;;;16.48;9.73;;;;;;;;;;5038889;28;20240;-70
2024/01/29 04:49:25;;;;;;;15.10;9.52;;;;;;;;;;5038345;28;20713;-70
2024/01/29 04:51:51;;;;;;;14.70;10.18;;;;;;;;;;5039229;28;20251;-70
2024/01/29 04:54:17;;;;;;;14.85;10.70;;;;;;;;;;5039067;28;20217;-70
2024/01/29 04:56:45;;;;;;;17.55;9.77;;;;;;;;;;5038805;28;20225;-69
2024/01/29 04:59:11;;;;;;;12.45;9.02;;;;;;;;;;5038396;28;20220;-69
2024/01/29 05:01:37;;;;;;;12.60;9.15;;;;;;;;;;5038876;28;20252;-70
2024/01/29 05:04:04;;;;;;;15.68;9.77;;;;;;;;;;5038450;28;20198;-69
2024/01/29 05:06:30;;;;;;;11.88;8.98;;;;;;;;;;5038428;28;20236;-69
2024/01/29 05:08:57;;;;;;;14.00;9.82;;;;;;;;;;5038875;28;20344;-70
2024/01/29 05:11:23;;;;;;;15.48;9.73;;;;;;;;;;5038529;28;20539;-70
2024/01/29 05:13:51;;;;;;;14.13;9.82;;;;;;;;;;5038366;28;20290;-70
2024/01/29 05:16:17;;;;;;;12.65;9.68;;;;;;;;;;5038782;28;20272;-70
2024/01/29 05:18:43;;;;;;;11.25;8.93;;;;;;;;;;5038266;28;20205;-70
2024/01/29 05:21:09;;;;;;;15.57;9.60;;;;;;;;;;5038464;28;20229;-70
2024/01/29 05:23:35;;;;;;;11.15;9.10;;;;;;;;;;5038167;28;20724;-70
2024/01/29 05:26:02;;;;;;;11.55;8.93;;;;;;;;;;5038417;28;20764;-70
2024/01/29 05:28:28;;;;;;;14.13;9.68;;;;;;;;;;5038379;28;20201;-70
2024/01/29 05:30:55;;;;;;;12.45;9.48;;;;;;;;;;5038340;28;20206;-70
2024/01/29 05:33:22;;;;;;;16.27;9.93;;;;;;;;;;5038111;28;20686;-70
2024/01/29 05:35:48;;;;;;;14.52;10.23;;;;;;;;;;5038255;28;20271;-70
2024/01/29 05:38:14;;;;;;;14.23;10.18;;;;;;;;;;5034201;28;20205;-70
2024/01/29 05:40:40;;;;;;;15.10;10.57;;;;;;;;;;5034846;28;20268;-70
2024/01/29 05:43:07;;;;;;;12.38;10.05;;;;;;;;;;5035079;28;20201;-70
2024/01/29 05:45:33;;;;;;;13.13;10.63;;;;;;;;;;5035325;28;20272;-71
2024/01/29 05:48:03;;;;;;;14.07;9.93;;;;;;;;;;5035363;28;20605;-70
2024/01/29 05:50:30;;;;;;;16.55;11.40;;;;;;;;;;5034750;28;20252;-70
2024/01/29 05:52:56;;;;;;;17.92;10.73;;;;;;;;;;5034355;28;20209;-70
2024/01/29 05:55:22;;;;;;;13.82;9.63;;;;;;;;;;5034006;28;20221;-70
2024/01/29 05:57:49;;;;;;;13.90;9.90;;;;;;;;;;5034050;28;20201;-70
2024/01/29 06:00:16;;;;;;;17.00;11.00;;;;;;;;;;5033341;28;20265;-69
2024/01/29 06:02:45;;;;;;;12.98;9.98;;;;;;;;;;5033107;28;20209;-70
2024/01/29 06:05:13;;;;;;;17.67;9.82;;;;;;;;;;5033122;28;20597;-70
2024/01/29 06:07:39;;;;;;;15.98;10.57;;;;;;;;;;5033494;28;20209;-70
2024/01/29 06:10:06;;;;;;;15.35;10.45;;;;;;;;;;5032813;28;20205;-70
2024/01/29 06:12:32;;;;;;;15.23;10.80;;;;;;;;;;5031573;28;20250;-70
2024/01/29 06:14:59;;;;;;;15.45;10.40;;;;;;;;;;5046624;28;20278;-70
2024/01/29 06:17:25;;;;;;;13.02;9.48;;;;;;;;;;5033840;28;20222;-70
2024/01/29 06:19:51;;;;;;;16.02;10.38;;;;;;;;;;5027526;28;20265;-70
2024/01/29 06:22:19;;;;;;;13.20;10.18;;;;;;;;;;5027755;28;20206;-69
2024/01/29 06:24:45;;;;;;;14.45;10.20;;;;;;;;;;5027420;28;20212;-70
2024/01/29 06:27:12;;;;;;;15.68;10.15;;;;;;;;;;5027761;28;20276;-70
2024/01/29 06:29:38;;;;;;;15.10;10.05;;;;;;;;;;5027843;28;20260;-70
2024/01/29 06:32:04;;;;;;;13.57;10.25;;;;;;;;;;5044592;28;20209;-69
2024/01/29 06:34:33;;;;;;;11.77;10.13;;;;;;;;;;5047641;28;20704;-69
2024/01/29 06:36:59;;;;;;;15.90;10.70;;;;;;;;;;5045716;28;20229;-69
2024/01/29 06:39:27;;;;;;;15.00;10.88;;;;;;;;;;5024481;28;20228;-61
2024/01/29 06:41:53;;;;;;;13.80;10.15;;;;;;;;;;5024734;28;20213;-61
2024/01/29 06:44:20;;;;;;;14.40;10.40;;;;;;;;;;5023345;28;20209;-61
2024/01/29 06:46:46;;;;;;;13.02;9.60;;;;;;;;;;5024204;28;20221;-61
2024/01/29 06:49:25;;;;;;;12.48;9.93;;;;;;;;;;5023766;28;20217;-60
2024/01/29 06:51:51;;;;;;;12.85;9.73;;;;;;;;;;5024561;28;20217;-61
2024/01/29 06:54:17;;;;;;;12.07;9.50;;;;;;;;;;5036514;28;20229;-61
2024/01/29 06:56:45;;;;;;;13.93;9.95;;;;;;;;;;5045142;28;20232;-61
2024/01/29 06:59:11;;;;;;;12.07;9.73;;;;;;;;;;5029875;28;20210;-61
2024/01/29 07:01:37;;;;;;;13.68;10.18;;;;;;;;;;5023827;28;20202;-61
2024/01/29 07:04:04;;;;;;;17.40;10.85;;;;;;;;;;5023396;28;20737;-60
2024/01/29 07:06:31;;;;;;;16.95;11.48;;;;;;;;;;5030605;28;20221;-61
2024/01/29 07:08:57;;;;;;;15.30;10.82;;;;;;;;;;5024996;28;20283;-61
2024/01/29 07:11:23;;;;;;;20.90;11.20;;;;;;;;;;5024973;28;20214;-62
2024/01/29 07:13:51;;;;;;;14.52;10.60;;;;;;;;;;5025800;28;20295;-62
2024/01/29 07:16:17;;;;;;;18.42;12.35;;;;;;;;;;5026404;28;20252;-61
2024/01/29 07:18:44;;;;;;;21.15;10.98;;;;;;;;;;5037047;28;20213;-63
2024/01/29 07:21:10;;;;;;;16.25;11.68;;;;;;;;;;5045890;28;20946;-61
2024/01/29 07:23:36;;;;;;;16.55;11.00;;;;;;;;;;5045654;28;20220;-61
2024/01/29 07:26:03;;;;;;;14.98;11.23;;;;;;;;;;5046474;28;20983;-61
2024/01/29 07:28:30;;;;;;;17.80;10.00;;;;;;;;;;5032077;28;20757;-61
2024/01/29 07:30:58;;;;;;;16.42;11.13;;;;;;;;;;5026150;28;20224;-61
2024/01/29 07:33:24;;;;;;;13.82;10.98;;;;;;;;;;5034982;28;20739;-62
2024/01/29 07:35:50;;;;;;;16.73;11.15;;;;;;;;;;5040126;28;20621;-61
2024/01/29 07:38:16;;;;;;;19.55;11.88;;;;;;;;;;5027529;28;20748;-61
2024/01/29 07:40:43;;;;;;;34.85;14.93;;;;;;;;;;5045800;28;20592;-63
2024/01/29 07:43:10;;;;;;;39.85;15.65;;;;;;;;;;5045415;28;20213;-61
2024/01/29 07:45:36;;;;;;;52.08;17.42;;;;;;;;;;5046055;28;20221;-61
2024/01/29 07:48:04;;;;;;;41.72;16.13;;;;;;;;;;5040125;28;20209;-62
2024/01/29 07:50:31;;;;;;;37.17;16.40;;;;;;;;;;5027494;28;20217;-62
2024/01/29 07:52:57;;;;;;;37.53;14.45;;;;;;;;;;5027759;28;20323;-61
2024/01/29 07:55:23;;;;;;;32.28;13.55;;;;;;;;;;5025326;28;20233;-62
2024/01/29 07:57:50;;;;;;;22.45;12.55;;;;;;;;;;5038290;28;20217;-60
2024/01/29 08:00:16;;;;;;;19.33;11.77;;;;;;;;;;5044787;28;20209;-61
2024/01/29 08:02:43;;;;;;;19.30;11.55;;;;;;;;;;5035684;28;20492;-61
2024/01/29 08:05:10;;;;;;;16.92;11.40;;;;;;;;;;5045266;28;20239;-61
2024/01/29 08:07:37;;;;;;;19.33;11.93;;;;;;;;;;5036527;28;20659;-60
2024/01/29 08:10:04;;;;;;;19.67;11.82;;;;;;;;;;5038964;28;20247;-62
2024/01/29 08:12:30;;;;;;;18.27;12.43;;;;;;;;;;5045447;28;20208;-61
2024/01/29 08:14:57;;;;;;;21.88;12.40;;;;;;;;;;5045036;28;20231;-61
2024/01/29 08:17:23;;;;;;;20.00;11.18;;;;;;;;;;5045345;28;20228;-62
2024/01/29 08:19:49;;;;;;;18.45;11.25;;;;;;;;;;5045324;28;20225;-62
2024/01/29 08:22:17;;;;;;;14.88;10.95;;;;;;;;;;5045438;28;20229;-63
2024/01/29 08:24:43;;;;;;;18.58;12.18;;;;;;;;;;5045443;28;20262;-60
2024/01/29 08:27:09;;;;;;;17.50;12.07;;;;;;;;;;5045191;28;20228;-63
2024/01/29 08:29:35;;;;;;;16.25;12.65;;;;;;;;;;5044911;28;20212;-63
2024/01/29 08:32:02;;;;;;;19.83;12.25;;;;;;;;;;5045752;28;20262;-62
2024/01/29 08:34:29;;;;;;;15.85;11.80;;;;;;;;;;5045524;28;20228;-62
2024/01/29 08:36:55;;;;;;;14.93;11.00;;;;;;;;;;5034866;28;20233;-61
2024/01/29 08:39:23;;;;;;;16.52;11.60;;;;;;;;;;5024578;28;20214;-60
2024/01/29 08:41:49;;;;;;;14.27;11.27;;;;;;;;;;5025358;28;20206;-62
2024/01/29 08:44:16;;;;;;;16.40;12.05;;;;;;;;;;5026324;28;20213;-61
2024/01/29 08:46:42;;;;;;;18.38;12.13;;;;;;;;;;5045238;28;20278;-61
2024/01/29 08:49:08;;;;;;;17.75;12.43;;;;;;;;;;5039731;28;20209;-61
2024/01/29 08:51:34;;;;;;;18.75;12.60;;;;;;;;;;5025251;28;20773;-59
2024/01/29 08:54:01;;;;;;;19.17;11.73;;;;;;;;;;5024962;28;20748;-60
2024/01/29 08:56:30;;;;;;;17.60;11.77;;;;;;;;;;5024717;28;20221;-60
2024/01/29 08:58:57;;;;;;;17.15;11.50;;;;;;;;;;5024588;28;20213;-61
2024/01/29 09:01:23;;;;;;;15.35;11.60;;;;;;;;;;5024836;28;20213;-61
2024/01/29 09:03:49;;;;;;;18.95;12.18;;;;;;;;;;5024750;28;20225;-59
2024/01/29 09:06:15;;;;;;;18.77;12.18;;;;;;;;;;5027970;28;20229;-62
2024/01/29 09:08:43;;;;;;;12.95;11.40;;;;;;;;;;5027066;28;20260;-61
2024/01/29 09:11:09;;;;;;;16.90;12.00;;;;;;;;;;5025056;28;20691;-63
2024/01/29 09:13:37;;;;;;;16.25;12.43;;;;;;;;;;5027860;28;20226;-62
2024/01/29 09:16:03;;;;;;;15.05;11.02;;;;;;;;;;5028640;28;20307;-62
2024/01/29 09:18:29;;;;;;;17.05;11.45;;;;;;;;;;5028376;28;20674;-62
2024/01/29 09:20:56;;;;;;;19.80;12.35;;;;;;;;;;5027917;28;20210;-62
2024/01/29 09:23:22;;;;;;;19.35;11.80;;;;;;;;;;5028267;28;20205;-61
2024/01/29 09:25:48;;;;;;;15.27;12.73;;;;;;;;;;5028414;28;20221;-61
2024/01/29 09:28:14;;;;;;;18.63;14.10;;;;;;;;;;5033601;28;20212;-62
2024/01/29 09:30:42;;;;;;;18.73;12.82;;;;;;;;;;5048118;28;20221;-61
2024/01/29 09:33:08;;;;;;;18.63;11.70;;;;;;;;;;5047715;28;20213;-62
2024/01/29 09:35:34;;;;;;;15.52;11.95;;;;;;;;;;5048543;28;20290;-61
2024/01/29 09:38:01;;;;;;;12.00;10.73;;;;;;;;;;5031529;28;20209;-60
2024/01/29 09:40:27;;;;;;;18.60;11.27;;;;;;;;;;5043206;28;20213;-61
2024/01/29 09:42:56;;;;;;;16.88;10.93;;;;;;;;;;5027672;28;20259;-62
2024/01/29 09:45:23;;;;;;;15.20;11.38;;;;;;;;;;5029727;28;20213;-63
2024/01/29 09:47:52;;;;;;;14.90;10.88;;;;;;;;;;5048068;28;20685;-64
2024/01/29 09:50:18;;;;;;;13.48;11.10;;;;;;;;;;5047560;28;20263;-60
2024/01/29 09:52:46;;;;;;;19.17;11.40;;;;;;;;;;5047670;28;20266;-62
2024/01/29 09:55:12;;;;;;;15.13;10.70;;;;;;;;;;5048177;28;20286;-62
2024/01/29 09:57:38;;;;;;;12.95;10.15;;;;;;;;;;5047927;28;20243;-61
2024/01/29 10:00:06;;;;;;;17.55;10.52;;;;;;;;;;5027622;28;20217;-60
2024/01/29 10:02:33;;;;;;;13.73;9.85;;;;;;;;;;5027677;28;20290;-61
2024/01/29 10:05:01;;;;;;;13.40;9.55;;;;;;;;;;5028152;28;20255;-60
2024/01/29 10:07:27;;;;;;;12.95;9.82;;;;;;;;;;5027826;28;20338;-63
2024/01/29 10:09:54;;;;;;;10.68;9.45;;;;;;;;;;5027595;28;21012;-63
2024/01/29 10:12:21;;;;;;;11.43;9.07;;;;;;;;;;5028005;28;20604;-62
2024/01/29 10:14:47;;;;;;;8.98;7.68;;;;;;;;;;5044805;28;20221;-61
2024/01/29 10:17:13;;;;;;;10.60;8.07;;;;;;;;;;5047424;28;20228;-61
2024/01/29 10:19:43;;;;;;;9.13;7.95;;;;;;;;;;5047305;28;20260;-61
2024/01/29 10:22:13;;;;;;;12.68;8.43;;;;;;;;;;5030173;28;20284;-61
2024/01/29 10:24:39;;;;;;;12.23;7.90;;;;;;;;;;5026572;28;20297;-61
2024/01/29 10:27:06;;;;;;;9.65;7.60;;;;;;;;;;5026217;28;20226;-61
2024/01/29 10:29:32;;;;;;;11.35;7.90;;;;;;;;;;5025655;28;20210;-63
2024/01/29 10:31:59;;;;;;;10.30;8.05;;;;;;;;;;5026785;28;20218;-61
2024/01/29 10:34:25;;;;;;;9.20;8.13;;;;;;;;;;5025909;28;20210;-60
2024/01/29 10:36:53;;;;;;;12.10;8.95;;;;;;;;;;5025833;28;20287;-60
2024/01/29 10:39:21;;;;;;;8.98;8.02;;;;;;;;;;5025470;28;20210;-60
2024/01/29 10:41:52;;;;;;;11.10;8.32;;;;;;;;;;5026445;28;20260;-60
2024/01/29 10:44:19;;;;;;;15.30;8.50;;;;;;;;;;5026721;28;20205;-59
2024/01/29 10:46:47;;;;;;;13.32;9.00;;;;;;;;;;5026414;28;20218;-59
2024/01/29 10:49:13;;;;;;;10.20;8.00;;;;;;;;;;5039633;28;20271;-62
2024/01/29 10:51:41;;;;;;;15.25;7.50;;;;;;;;;;5045880;28;20276;-61
2024/01/29 10:54:08;;;;;;;12.77;8.60;;;;;;;;;;5045344;28;20264;-61
2024/01/29 10:56:36;;;;;;;12.95;7.40;;;;;;;;;;5036914;28;20241;-61
2024/01/29 10:59:02;;;;;;;10.77;7.93;;;;;;;;;;5025263;28;20259;-62
2024/01/29 11:01:29;;;;;;;11.45;8.32;;;;;;;;;;5028227;28;20737;-61
2024/01/29 11:03:57;;;;;;;8.15;7.22;;;;;;;;;;5044926;28;20209;-61
2024/01/29 11:06:27;;;;;;;10.15;8.18;;;;;;;;;;5026885;28;20662;-60
2024/01/29 11:08:56;;;;;;;12.95;7.90;;;;;;;;;;5033861;28;20593;-61
2024/01/29 11:11:25;;;;;;;13.02;8.05;;;;;;;;;;5045521;28;20678;-61
2024/01/29 11:13:52;;;;;;;9.95;7.32;;;;;;;;;;5044420;28;20330;-60
2024/01/29 11:16:18;;;;;;;8.85;7.53;;;;;;;;;;5044537;28;20282;-60
2024/01/29 11:18:45;;;;;;;9.20;7.25;;;;;;;;;;5033257;28;20272;-60
2024/01/29 11:21:14;;;;;;;10.82;7.85;;;;;;;;;;5024968;28;20624;-60
2024/01/29 11:23:42;;;;;;;8.20;7.13;;;;;;;;;;5024272;28;20209;-61
2024/01/29 11:26:11;;;;;;;8.10;7.20;;;;;;;;;;5026797;28;20222;-60
2024/01/29 11:28:38;;;;;;;8.60;6.70;;;;;;;;;;5025773;28;20263;-62
2024/01/29 11:31:09;;;;;;;13.48;6.72;;;;;;;;;;5026235;28;21106;-61
2024/01/29 11:33:35;;;;;;;8.00;6.93;;;;;;;;;;5026186;28;20275;-61
2024/01/29 11:36:06;;;;;;;9.68;6.53;;;;;;;;;;5025250;28;20236;-61
2024/01/29 11:38:32;;;;;;;9.25;6.57;;;;;;;;;;5031696;28;20221;-61
2024/01/29 11:41:01;;;;;;;8.00;6.55;;;;;;;;;;5029887;28;20637;-60
2024/01/29 11:43:27;;;;;;;9.85;6.00;;;;;;;;;;5034164;28;20283;-61
2024/01/29 11:45:54;;;;;;;10.10;6.78;;;;;;;;;;5038598;28;20298;-60
2024/01/29 11:48:23;;;;;;;8.93;6.00;;;;;;;;;;5038531;28;20213;-62
2024/01/29 11:50:51;;;;;;;8.48;6.53;;;;;;;;;;5025698;28;20213;-61
2024/01/29 11:53:18;;;;;;;7.00;6.18;;;;;;;;;;5024762;28;20209;-61
2024/01/29 11:55:46;;;;;;;6.25;5.60;;;;;;;;;;5024871;28;20233;-60
2024/01/29 11:58:14;;;;;;;8.30;5.80;;;;;;;;;;5031172;28;20295;-61
2024/01/29 12:00:40;;;;;;;5.70;5.18;;;;;;;;;;5043913;28;20218;-61
2024/01/29 12:03:07;;;;;;;8.68;5.18;;;;;;;;;;5037540;28;20267;-61
2024/01/29 12:05:35;;;;;;;8.10;5.85;;;;;;;;;;5031489;28;20228;-61
2024/01/29 12:08:02;;;;;;;9.05;6.68;;;;;;;;;;5032503;28;20700;-60
2024/01/29 12:10:28;;;;;;;6.00;5.40;;;;;;;;;;5024031;28;20486;-60
2024/01/29 12:12:54;;;;;;;6.80;5.15;;;;;;;;;;5023886;28;21049;-61
2024/01/29 12:15:20;;;;;;;14.85;5.30;;;;;;;;;;5023702;28;20259;-61
2024/01/29 12:17:48;;;;;;;6.20;5.18;;;;;;;;;;5024223;28;20239;-60
2024/01/29 12:20:14;;;;;;;7.30;5.10;;;;;;;;;;5024674;28;20264;-59
2024/01/29 12:22:42;;;;;;;5.70;5.20;;;;;;;;;;5023629;28;20213;-60
2024/01/29 12:25:11;;;;;;;10.88;5.55;;;;;;;;;;5024746;28;20570;-62
2024/01/29 12:27:38;;;;;;;6.32;4.93;;;;;;;;;;5024410;28;20220;-60
2024/01/29 12:30:04;;;;;;;5.28;4.80;;;;;;;;;;5023420;28;20210;-61
2024/01/29 12:32:32;;;;;;;7.13;5.13;;;;;;;;;;5023674;28;21119;-61
2024/01/29 12:34:58;;;;;;;8.23;5.10;;;;;;;;;;5024839;28;20214;-61
2024/01/29 12:37:26;;;;;;;8.13;5.13;;;;;;;;;;5023594;28;20287;-62
2024/01/29 12:39:54;;;;;;;12.13;5.45;;;;;;;;;;5023638;28;20206;-61
2024/01/29 12:42:20;;;;;;;15.98;5.18;;;;;;;;;;5024297;28;20210;-61
2024/01/29 12:44:48;;;;;;;6.53;4.97;;;;;;;;;;5027735;28;20263;-61
2024/01/29 12:47:14;;;;;;;7.43;4.93;;;;;;;;;;5046337;28;20233;-61
2024/01/29 12:49:40;;;;;;;5.38;4.50;;;;;;;;;;5047708;28;20265;-61
2024/01/29 12:52:07;;;;;;;6.78;4.53;;;;;;;;;;5047728;28;20209;-61
2024/01/29 12:54:33;;;;;;;5.40;4.88;;;;;;;;;;5029406;28;20251;-61
2024/01/29 12:57:01;;;;;;;13.07;5.38;;;;;;;;;;5028009;28;20454;-61
2024/01/29 12:59:27;;;;;;;6.38;4.40;;;;;;;;;;5027170;28;20260;-61
2024/01/29 13:01:54;;;;;;;7.88;4.88;;;;;;;;;;5027520;28;20772;-61
2024/01/29 13:04:20;;;;;;;9.25;5.22;;;;;;;;;;5027726;28;20217;-61
2024/01/29 13:06:46;;;;;;;11.65;5.05;;;;;;;;;;5043336;28;20217;-62
2024/01/29 13:09:13;;;;;;;8.70;4.93;;;;;;;;;;5026615;28;20205;-61
2024/01/29 13:11:39;;;;;;;16.13;5.95;;;;;;;;;;5027814;28;20209;-61
2024/01/29 13:14:06;;;;;;;16.20;6.43;;;;;;;;;;5027368;28;20209;-62
2024/01/29 13:16:33;;;;;;;10.35;5.47;;;;;;;;;;5027666;28;20253;-62
2024/01/29 13:18:59;;;;;;;6.22;5.40;;;;;;;;;;5035352;28;20262;-62
2024/01/29 13:21:25;;;;;;;10.27;5.82;;;;;;;;;;5045395;28;20217;-61
2024/01/29 13:23:51;;;;;;;10.30;5.03;;;;;;;;;;5050152;28;20209;-62
2024/01/29 13:26:18;;;;;;;5.80;4.38;;;;;;;;;;5044830;28;20496;-61
2024/01/29 13:28:44;;;;;;;7.10;4.10;;;;;;;;;;5049426;28;20205;-62
2024/01/29 13:31:11;;;;;;;4.97;2.90;;;;;;;;;;5048936;28;20208;-64
2024/01/29 13:33:40;;;;;;;3.97;3.08;;;;;;;;;;5050478;28;20260;-63
2024/01/29 13:36:06;;;;;;;4.97;2.90;;;;;;;;;;5047376;28;20332;-62
2024/01/29 13:38:33;;;;;;;3.05;2.85;;;;;;;;;;5043101;28;20212;-64
2024/01/29 13:40:59;;;;;;;4.10;3.10;;;;;;;;;;5043084;28;20263;-63
2024/01/29 13:43:25;;;;;;;3.97;3.10;;;;;;;;;;5042187;28;20260;-62
2024/01/29 13:45:51;;;;;;;3.88;3.33;;;;;;;;;;5050401;28;20244;-61
2024/01/29 13:48:19;;;;;;;4.57;3.42;;;;;;;;;;5045730;28;20227;-59
2024/01/29 13:50:45;;;;;;;5.80;3.70;;;;;;;;;;5048942;28;20213;-63
2024/01/29 13:53:11;;;;;;;5.00;3.33;;;;;;;;;;5043266;28;20662;-62
2024/01/29 13:55:38;;;;;;;5.03;3.63;;;;;;;;;;5049035;28;20258;-62
2024/01/29 13:58:04;;;;;;;3.75;3.45;;;;;;;;;;5042372;28;21055;-62
2024/01/29 14:00:31;;;;;;;7.50;3.53;;;;;;;;;;5045718;28;20210;-62
2024/01/29 14:02:57;;;;;;;7.63;3.35;;;;;;;;;;5047727;28;20208;-62
2024/01/29 14:05:24;;;;;;;15.48;4.93;;;;;;;;;;5045798;28;20205;-62
2024/01/29 14:07:50;;;;;;;5.20;4.15;;;;;;;;;;5045760;28;20600;-62
2024/01/29 14:10:17;;;;;;;6.22;4.05;;;;;;;;;;5039430;28;20212;-61
2024/01/29 14:12:43;;;;;;;4.93;3.50;;;;;;;;;;5049590;28;20276;-61
2024/01/29 14:15:12;;;;;;;6.75;3.83;;;;;;;;;;5041928;28;20604;-62
2024/01/29 14:17:38;;;;;;;5.40;3.38;;;;;;;;;;5048525;28;20221;-61
2024/01/29 14:20:05;;;;;;;4.70;3.50;;;;;;;;;;5046132;28;20338;-61
2024/01/29 14:22:32;;;;;;;3.83;3.40;;;;;;;;;;5045145;28;20202;-61